sensor_id;sensor_type;location;lat;lon;timestamp;temperature;humidity
6357;DHT22;3211;53.452;-2.264;2023-06-24T00:01:28;19.60;99.90
6357;DHT22;3211;53.452;-2.264;2023-06-24T00:04:12;19.70;99.90
6357;DHT22;3211;53.452;-2.264;2023-06-24T00:07:00;19.70;99.90
6357;DHT22;3211;53.452;-2.264;2023-06-24T00:09:45;19.60;99.90
6357;DHT22;3211;53.452;-2.264;2023-06-24T00:12:27;19.60;99.90
6357;DHT22;3211;53.452;-2.264;2023-06-24T00:15:09;19.60;99.90
6357;DHT22;3211;53.452;-2.264;2023-06-24T00:17:51;19.60;99.90
6357;DHT22;3211;53.452;-2.264;2023-06-24T00:20:33;19.60;99.90
6357;DHT22;3211;53.452;-2.264;2023-06-24T00:23:17;19.50;99.90
6357;DHT22;3211;53.452;-2.264;2023-06-24T00:26:05;19.50;99.90
6357;DHT22;3211;53.452;-2.264;2023-06-24T00:28:47;19.40;99.90
6357;DHT22;3211;53.452;-2.264;2023-06-24T00:31:29;19.40;99.90
6357;DHT22;3211;53.452;-2.264;2023-06-24T00:34:11;19.40;99.90
6357;DHT22;3211;53.452;-2.264;2023-06-24T00:36:52;19.30;99.90
6357;DHT22;3211;53.452;-2.264;2023-06-24T00:39:37;19.30;99.90
6357;DHT22;3211;53.452;-2.264;2023-06-24T00:42:19;19.20;99.90
6357;DHT22;3211;53.452;-2.264;2023-06-24T00:45:02;19.20;99.90
6357;DHT22;3211;53.452;-2.264;2023-06-24T00:47:45;19.20;99.90
6357;DHT22;3211;53.452;-2.264;2023-06-24T00:50:27;19.30;99.90
6357;DHT22;3211;53.452;-2.264;2023-06-24T00:53:09;19.30;99.90
6357;DHT22;3211;53.452;-2.264;2023-06-24T00:55:54;19.20;99.90
6357;DHT22;3211;53.452;-2.264;2023-06-24T00:58:37;19.20;99.90
6357;DHT22;3211;53.452;-2.264;2023-06-24T01:01:20;19.20;99.90
6357;DHT22;3211;53.452;-2.264;2023-06-24T01:04:03;19.10;99.90
6357;DHT22;3211;53.452;-2.264;2023-06-24T01:06:46;19.10;99.90
6357;DHT22;3211;53.452;-2.264;2023-06-24T01:09:28;19.00;99.90
6357;DHT22;3211;53.452;-2.264;2023-06-24T01:12:11;19.00;99.90
6357;DHT22;3211;53.452;-2.264;2023-06-24T01:14:53;19.00;99.90
6357;DHT22;3211;53.452;-2.264;2023-06-24T01:17:37;18.90;99.90
6357;DHT22;3211;53.452;-2.264;2023-06-24T01:20:25;18.80;99.90
6357;DHT22;3211;53.452;-2.264;2023-06-24T01:26:30;18.80;99.90
6357;DHT22;3211;53.452;-2.264;2023-06-24T01:29:38;18.80;99.90
6357;DHT22;3211;53.452;-2.264;2023-06-24T01:32:30;18.80;99.90
6357;DHT22;3211;53.452;-2.264;2023-06-24T01:35:18;18.80;99.90
6357;DHT22;3211;53.452;-2.264;2023-06-24T01:38:07;18.80;99.90
6357;DHT22;3211;53.452;-2.264;2023-06-24T01:40:50;18.80;99.90
6357;DHT22;3211;53.452;-2.264;2023-06-24T01:43:34;18.80;99.90
6357;DHT22;3211;53.452;-2.264;2023-06-24T01:46:21;18.90;99.90
6357;DHT22;3211;53.452;-2.264;2023-06-24T01:49:07;18.90;99.90
6357;DHT22;3211;53.452;-2.264;2023-06-24T01:51:55;18.90;99.90
6357;DHT22;3211;53.452;-2.264;2023-06-24T01:54:39;18.90;99.90
6357;DHT22;3211;53.452;-2.264;2023-06-24T01:57:23;19.00;99.90
6357;DHT22;3211;53.452;-2.264;2023-06-24T02:00:07;19.10;99.90
6357;DHT22;3211;53.452;-2.264;2023-06-24T02:02:50;19.00;99.90
6357;DHT22;3211;53.452;-2.264;2023-06-24T02:05:35;19.00;99.90
6357;DHT22;3211;53.452;-2.264;2023-06-24T02:08:20;19.00;99.90
6357;DHT22;3211;53.452;-2.264;2023-06-24T02:11:04;19.00;99.90
6357;DHT22;3211;53.452;-2.264;2023-06-24T02:13:46;19.00;99.90
6357;DHT22;3211;53.452;-2.264;2023-06-24T02:16:29;19.00;99.90
6357;DHT22;3211;53.452;-2.264;2023-06-24T02:19:12;19.00;99.90
6357;DHT22;3211;53.452;-2.264;2023-06-24T02:22:00;19.00;99.90
6357;DHT22;3211;53.452;-2.264;2023-06-24T02:24:45;19.10;99.90
6357;DHT22;3211;53.452;-2.264;2023-06-24T02:27:27;19.00;99.90
6357;DHT22;3211;53.452;-2.264;2023-06-24T02:30:11;19.00;99.90
6357;DHT22;3211;53.452;-2.264;2023-06-24T02:32:54;19.00;99.90
6357;DHT22;3211;53.452;-2.264;2023-06-24T02:35:37;19.00;99.90
6357;DHT22;3211;53.452;-2.264;2023-06-24T02:38:20;18.90;99.90
6357;DHT22;3211;53.452;-2.264;2023-06-24T02:41:02;18.90;99.90
6357;DHT22;3211;53.452;-2.264;2023-06-24T02:43:45;18.90;99.90
6357;DHT22;3211;53.452;-2.264;2023-06-24T02:46:27;18.80;99.90
6357;DHT22;3211;53.452;-2.264;2023-06-24T02:49:13;18.80;99.90
6357;DHT22;3211;53.452;-2.264;2023-06-24T02:51:56;18.80;99.90
6357;DHT22;3211;53.452;-2.264;2023-06-24T02:54:40;18.80;99.90
6357;DHT22;3211;53.452;-2.264;2023-06-24T02:57:22;18.80;99.90
6357;DHT22;3211;53.452;-2.264;2023-06-24T03:00:07;18.80;99.90
6357;DHT22;3211;53.452;-2.264;2023-06-24T03:02:53;18.80;99.90
6357;DHT22;3211;53.452;-2.264;2023-06-24T03:05:35;18.80;99.90
6357;DHT22;3211;53.452;-2.264;2023-06-24T03:08:18;18.80;99.90
6357;DHT22;3211;53.452;-2.264;2023-06-24T03:11:01;18.80;99.90
6357;DHT22;3211;53.452;-2.264;2023-06-24T03:13:44;18.90;99.90
6357;DHT22;3211;53.452;-2.264;2023-06-24T03:16:25;18.90;99.90
6357;DHT22;3211;53.452;-2.264;2023-06-24T03:19:07;18.90;99.90
6357;DHT22;3211;53.452;-2.264;2023-06-24T03:21:49;18.90;99.90
6357;DHT22;3211;53.452;-2.264;2023-06-24T03:24:31;18.90;99.90
6357;DHT22;3211;53.452;-2.264;2023-06-24T03:27:15;18.90;99.90
6357;DHT22;3211;53.452;-2.264;2023-06-24T03:29:57;18.90;99.90
6357;DHT22;3211;53.452;-2.264;2023-06-24T03:32:38;18.90;99.90
6357;DHT22;3211;53.452;-2.264;2023-06-24T03:35:20;18.90;99.90
6357;DHT22;3211;53.452;-2.264;2023-06-24T03:38:02;18.90;99.90
6357;DHT22;3211;53.452;-2.264;2023-06-24T03:40:44;18.90;99.90
6357;DHT22;3211;53.452;-2.264;2023-06-24T03:43:28;18.80;99.90
6357;DHT22;3211;53.452;-2.264;2023-06-24T03:46:10;18.70;99.90
6357;DHT22;3211;53.452;-2.264;2023-06-24T03:48:52;18.70;99.90
6357;DHT22;3211;53.452;-2.264;2023-06-24T03:51:34;18.70;99.90
6357;DHT22;3211;53.452;-2.264;2023-06-24T03:54:15;18.60;99.90
6357;DHT22;3211;53.452;-2.264;2023-06-24T03:56:57;18.60;99.90
6357;DHT22;3211;53.452;-2.264;2023-06-24T03:59:41;18.60;99.90
6357;DHT22;3211;53.452;-2.264;2023-06-24T04:02:23;18.60;99.90
6357;DHT22;3211;53.452;-2.264;2023-06-24T04:05:05;18.60;99.90
6357;DHT22;3211;53.452;-2.264;2023-06-24T04:07:47;18.60;99.90
6357;DHT22;3211;53.452;-2.264;2023-06-24T04:10:31;18.50;99.90
6357;DHT22;3211;53.452;-2.264;2023-06-24T04:13:13;18.50;99.90
6357;DHT22;3211;53.452;-2.264;2023-06-24T04:15:56;18.50;99.90
6357;DHT22;3211;53.452;-2.264;2023-06-24T04:18:38;18.60;99.90
6357;DHT22;3211;53.452;-2.264;2023-06-24T04:21:20;18.70;99.90
6357;DHT22;3211;53.452;-2.264;2023-06-24T04:24:02;18.70;99.90
6357;DHT22;3211;53.452;-2.264;2023-06-24T04:26:44;18.80;99.90
6357;DHT22;3211;53.452;-2.264;2023-06-24T04:29:26;18.80;99.90
6357;DHT22;3211;53.452;-2.264;2023-06-24T04:32:09;18.80;99.90
6357;DHT22;3211;53.452;-2.264;2023-06-24T04:34:51;18.80;99.90
6357;DHT22;3211;53.452;-2.264;2023-06-24T04:37:33;18.80;99.90
6357;DHT22;3211;53.452;-2.264;2023-06-24T04:40:16;18.80;99.90
6357;DHT22;3211;53.452;-2.264;2023-06-24T04:42:59;18.80;99.90
6357;DHT22;3211;53.452;-2.264;2023-06-24T04:45:41;18.80;99.90
6357;DHT22;3211;53.452;-2.264;2023-06-24T04:48:26;18.80;99.90
6357;DHT22;3211;53.452;-2.264;2023-06-24T04:51:08;18.80;99.90
6357;DHT22;3211;53.452;-2.264;2023-06-24T04:53:50;18.80;99.90
6357;DHT22;3211;53.452;-2.264;2023-06-24T04:56:32;18.70;99.90
6357;DHT22;3211;53.452;-2.264;2023-06-24T04:59:15;18.80;99.90
6357;DHT22;3211;53.452;-2.264;2023-06-24T05:01:57;18.80;99.90
6357;DHT22;3211;53.452;-2.264;2023-06-24T05:04:40;18.80;99.90
6357;DHT22;3211;53.452;-2.264;2023-06-24T05:07:22;18.80;99.90
6357;DHT22;3211;53.452;-2.264;2023-06-24T05:10:04;18.80;99.90
6357;DHT22;3211;53.452;-2.264;2023-06-24T05:12:46;18.90;99.90
6357;DHT22;3211;53.452;-2.264;2023-06-24T05:15:28;18.80;99.90
6357;DHT22;3211;53.452;-2.264;2023-06-24T05:18:10;18.80;99.90
6357;DHT22;3211;53.452;-2.264;2023-06-24T05:20:54;18.80;99.90
6357;DHT22;3211;53.452;-2.264;2023-06-24T05:23:36;18.70;99.90
6357;DHT22;3211;53.452;-2.264;2023-06-24T05:26:18;18.80;99.90
6357;DHT22;3211;53.452;-2.264;2023-06-24T05:29:00;18.80;99.90
6357;DHT22;3211;53.452;-2.264;2023-06-24T05:31:42;18.80;99.90
6357;DHT22;3211;53.452;-2.264;2023-06-24T05:34:24;18.80;99.90
6357;DHT22;3211;53.452;-2.264;2023-06-24T05:37:07;18.80;99.90
6357;DHT22;3211;53.452;-2.264;2023-06-24T05:39:49;18.90;99.90
6357;DHT22;3211;53.452;-2.264;2023-06-24T05:42:31;18.80;99.90
6357;DHT22;3211;53.452;-2.264;2023-06-24T05:45:14;18.90;99.90
6357;DHT22;3211;53.452;-2.264;2023-06-24T05:47:56;18.80;99.90
6357;DHT22;3211;53.452;-2.264;2023-06-24T05:50:38;18.80;99.90
6357;DHT22;3211;53.452;-2.264;2023-06-24T05:53:21;18.80;99.90
6357;DHT22;3211;53.452;-2.264;2023-06-24T05:56:03;18.80;99.90
6357;DHT22;3211;53.452;-2.264;2023-06-24T05:58:45;18.90;99.90
6357;DHT22;3211;53.452;-2.264;2023-06-24T06:01:27;18.90;99.90
6357;DHT22;3211;53.452;-2.264;2023-06-24T06:04:09;18.90;99.90
6357;DHT22;3211;53.452;-2.264;2023-06-24T06:06:51;19.00;99.90
6357;DHT22;3211;53.452;-2.264;2023-06-24T06:09:34;19.10;99.90
6357;DHT22;3211;53.452;-2.264;2023-06-24T06:12:16;19.20;99.90
6357;DHT22;3211;53.452;-2.264;2023-06-24T06:14:58;19.30;99.90
6357;DHT22;3211;53.452;-2.264;2023-06-24T06:17:40;19.40;99.90
6357;DHT22;3211;53.452;-2.264;2023-06-24T06:20:22;19.50;99.90
6357;DHT22;3211;53.452;-2.264;2023-06-24T06:23:04;19.50;99.90
6357;DHT22;3211;53.452;-2.264;2023-06-24T06:25:47;19.70;99.90
6357;DHT22;3211;53.452;-2.264;2023-06-24T06:28:29;19.80;99.90
6357;DHT22;3211;53.452;-2.264;2023-06-24T06:31:11;19.90;99.90
6357;DHT22;3211;53.452;-2.264;2023-06-24T06:33:53;19.90;99.90
6357;DHT22;3211;53.452;-2.264;2023-06-24T06:36:35;19.90;99.90
6357;DHT22;3211;53.452;-2.264;2023-06-24T06:39:17;20.00;99.90
6357;DHT22;3211;53.452;-2.264;2023-06-24T06:42:00;20.00;99.90
6357;DHT22;3211;53.452;-2.264;2023-06-24T06:44:42;20.00;99.90
6357;DHT22;3211;53.452;-2.264;2023-06-24T06:47:24;19.90;99.90
6357;DHT22;3211;53.452;-2.264;2023-06-24T06:50:07;20.00;99.90
6357;DHT22;3211;53.452;-2.264;2023-06-24T06:52:49;20.00;99.90
6357;DHT22;3211;53.452;-2.264;2023-06-24T06:55:31;20.10;99.90
6357;DHT22;3211;53.452;-2.264;2023-06-24T06:58:14;20.20;99.90
6357;DHT22;3211;53.452;-2.264;2023-06-24T07:00:56;20.20;99.90
6357;DHT22;3211;53.452;-2.264;2023-06-24T07:03:41;20.30;99.90
6357;DHT22;3211;53.452;-2.264;2023-06-24T07:06:23;20.30;99.90
6357;DHT22;3211;53.452;-2.264;2023-06-24T07:09:05;20.40;99.90
6357;DHT22;3211;53.452;-2.264;2023-06-24T07:11:48;20.50;99.90
6357;DHT22;3211;53.452;-2.264;2023-06-24T07:14:31;20.60;99.90
6357;DHT22;3211;53.452;-2.264;2023-06-24T07:17:13;20.70;99.90
6357;DHT22;3211;53.452;-2.264;2023-06-24T07:19:55;20.90;99.90
6357;DHT22;3211;53.452;-2.264;2023-06-24T07:22:37;21.00;99.90
6357;DHT22;3211;53.452;-2.264;2023-06-24T07:25:19;21.10;99.90
6357;DHT22;3211;53.452;-2.264;2023-06-24T07:28:01;21.20;99.90
6357;DHT22;3211;53.452;-2.264;2023-06-24T07:30:44;21.20;99.90
6357;DHT22;3211;53.452;-2.264;2023-06-24T07:33:26;21.20;99.90
6357;DHT22;3211;53.452;-2.264;2023-06-24T07:36:10;21.20;99.90
6357;DHT22;3211;53.452;-2.264;2023-06-24T07:38:54;21.20;99.90
6357;DHT22;3211;53.452;-2.264;2023-06-24T07:41:36;21.10;99.90
6357;DHT22;3211;53.452;-2.264;2023-06-24T07:44:17;21.20;99.90
6357;DHT22;3211;53.452;-2.264;2023-06-24T07:47:01;21.20;99.90
6357;DHT22;3211;53.452;-2.264;2023-06-24T07:49:43;21.30;99.90
6357;DHT22;3211;53.452;-2.264;2023-06-24T07:52:25;21.30;99.90
6357;DHT22;3211;53.452;-2.264;2023-06-24T07:55:08;21.30;99.90
6357;DHT22;3211;53.452;-2.264;2023-06-24T07:57:50;21.20;99.90
6357;DHT22;3211;53.452;-2.264;2023-06-24T08:00:32;21.30;99.90
6357;DHT22;3211;53.452;-2.264;2023-06-24T08:03:15;21.40;99.90
6357;DHT22;3211;53.452;-2.264;2023-06-24T08:05:57;21.30;99.90
6357;DHT22;3211;53.452;-2.264;2023-06-24T08:08:39;21.40;99.90
6357;DHT22;3211;53.452;-2.264;2023-06-24T08:11:21;21.20;99.90
6357;DHT22;3211;53.452;-2.264;2023-06-24T08:14:03;21.30;99.90
6357;DHT22;3211;53.452;-2.264;2023-06-24T08:16:45;21.30;99.90
6357;DHT22;3211;53.452;-2.264;2023-06-24T08:19:29;21.50;99.90
6357;DHT22;3211;53.452;-2.264;2023-06-24T08:22:10;21.60;99.90
6357;DHT22;3211;53.452;-2.264;2023-06-24T08:24:52;21.70;99.90
6357;DHT22;3211;53.452;-2.264;2023-06-24T08:27:34;21.60;99.90
6357;DHT22;3211;53.452;-2.264;2023-06-24T08:30:17;21.70;99.90
6357;DHT22;3211;53.452;-2.264;2023-06-24T08:33:00;21.80;99.90
6357;DHT22;3211;53.452;-2.264;2023-06-24T08:35:43;21.90;99.90
6357;DHT22;3211;53.452;-2.264;2023-06-24T08:38:25;21.90;99.90
6357;DHT22;3211;53.452;-2.264;2023-06-24T08:41:07;21.90;99.90
6357;DHT22;3211;53.452;-2.264;2023-06-24T08:43:49;22.00;99.90
6357;DHT22;3211;53.452;-2.264;2023-06-24T08:46:31;22.00;99.90
6357;DHT22;3211;53.452;-2.264;2023-06-24T08:49:26;22.00;99.90
6357;DHT22;3211;53.452;-2.264;2023-06-24T08:52:13;22.10;99.90
6357;DHT22;3211;53.452;-2.264;2023-06-24T08:54:58;22.10;99.90
6357;DHT22;3211;53.452;-2.264;2023-06-24T08:57:41;22.00;99.90
6357;DHT22;3211;53.452;-2.264;2023-06-24T09:00:22;21.90;99.90
6357;DHT22;3211;53.452;-2.264;2023-06-24T09:03:05;21.70;99.90
6357;DHT22;3211;53.452;-2.264;2023-06-24T09:05:47;21.70;99.90
6357;DHT22;3211;53.452;-2.264;2023-06-24T09:08:30;21.70;99.90
6357;DHT22;3211;53.452;-2.264;2023-06-24T09:11:22;21.70;99.90
6357;DHT22;3211;53.452;-2.264;2023-06-24T09:14:04;21.80;99.90
6357;DHT22;3211;53.452;-2.264;2023-06-24T09:16:52;22.00;99.90
6357;DHT22;3211;53.452;-2.264;2023-06-24T09:19:34;22.10;99.90
6357;DHT22;3211;53.452;-2.264;2023-06-24T09:22:17;22.30;99.90
6357;DHT22;3211;53.452;-2.264;2023-06-24T09:25:02;22.30;99.90
6357;DHT22;3211;53.452;-2.264;2023-06-24T09:27:47;22.40;99.90
6357;DHT22;3211;53.452;-2.264;2023-06-24T09:30:30;22.50;99.90
6357;DHT22;3211;53.452;-2.264;2023-06-24T09:33:12;22.50;99.90
6357;DHT22;3211;53.452;-2.264;2023-06-24T09:35:56;22.40;99.90
6357;DHT22;3211;53.452;-2.264;2023-06-24T09:38:42;22.20;99.90
6357;DHT22;3211;53.452;-2.264;2023-06-24T09:41:27;22.30;99.90
6357;DHT22;3211;53.452;-2.264;2023-06-24T09:44:12;22.40;99.90
6357;DHT22;3211;53.452;-2.264;2023-06-24T09:46:54;22.50;99.90
6357;DHT22;3211;53.452;-2.264;2023-06-24T09:49:37;22.50;99.90
6357;DHT22;3211;53.452;-2.264;2023-06-24T09:52:20;22.60;99.90
6357;DHT22;3211;53.452;-2.264;2023-06-24T09:55:03;22.50;99.90
6357;DHT22;3211;53.452;-2.264;2023-06-24T09:57:50;22.40;99.90
6357;DHT22;3211;53.452;-2.264;2023-06-24T10:00:33;22.50;99.90
6357;DHT22;3211;53.452;-2.264;2023-06-24T10:03:15;22.40;99.90
6357;DHT22;3211;53.452;-2.264;2023-06-24T10:05:57;22.50;99.90
6357;DHT22;3211;53.452;-2.264;2023-06-24T10:08:40;22.50;99.90
6357;DHT22;3211;53.452;-2.264;2023-06-24T10:11:22;22.50;99.90
6357;DHT22;3211;53.452;-2.264;2023-06-24T10:14:05;22.50;99.90
6357;DHT22;3211;53.452;-2.264;2023-06-24T10:16:48;22.60;99.90
6357;DHT22;3211;53.452;-2.264;2023-06-24T10:19:30;22.70;99.90
6357;DHT22;3211;53.452;-2.264;2023-06-24T10:22:12;22.70;99.90
6357;DHT22;3211;53.452;-2.264;2023-06-24T10:24:54;23.00;99.90
6357;DHT22;3211;53.452;-2.264;2023-06-24T10:27:44;22.90;99.90
6357;DHT22;3211;53.452;-2.264;2023-06-24T10:30:27;22.90;99.90
6357;DHT22;3211;53.452;-2.264;2023-06-24T10:33:10;22.80;99.90
6357;DHT22;3211;53.452;-2.264;2023-06-24T10:35:52;22.70;99.90
6357;DHT22;3211;53.452;-2.264;2023-06-24T10:38:38;22.70;99.90
6357;DHT22;3211;53.452;-2.264;2023-06-24T10:41:20;22.80;99.90
6357;DHT22;3211;53.452;-2.264;2023-06-24T10:44:14;23.00;99.90
6357;DHT22;3211;53.452;-2.264;2023-06-24T10:46:58;23.30;99.90
6357;DHT22;3211;53.452;-2.264;2023-06-24T10:49:40;23.20;99.90
6357;DHT22;3211;53.452;-2.264;2023-06-24T10:52:23;23.50;99.90
6357;DHT22;3211;53.452;-2.264;2023-06-24T10:55:06;23.50;99.90
6357;DHT22;3211;53.452;-2.264;2023-06-24T10:57:48;23.70;99.90
6357;DHT22;3211;53.452;-2.264;2023-06-24T11:00:30;23.80;99.90
6357;DHT22;3211;53.452;-2.264;2023-06-24T11:03:16;23.80;99.90
6357;DHT22;3211;53.452;-2.264;2023-06-24T11:05:58;23.80;99.90
6357;DHT22;3211;53.452;-2.264;2023-06-24T11:08:44;23.80;99.90
6357;DHT22;3211;53.452;-2.264;2023-06-24T11:11:29;24.20;99.90
6357;DHT22;3211;53.452;-2.264;2023-06-24T11:14:11;24.40;99.90
6357;DHT22;3211;53.452;-2.264;2023-06-24T11:16:53;24.30;1.00
6357;DHT22;3211;53.452;-2.264;2023-06-24T11:19:36;24.30;10.20
6357;DHT22;3211;53.452;-2.264;2023-06-24T11:22:21;24.40;1.00
6357;DHT22;3211;53.452;-2.264;2023-06-24T11:25:03;24.40;1.00
6357;DHT22;3211;53.452;-2.264;2023-06-24T11:27:46;24.60;1.00
6357;DHT22;3211;53.452;-2.264;2023-06-24T11:30:34;24.60;1.00
6357;DHT22;3211;53.452;-2.264;2023-06-24T11:33:26;24.70;1.00
6357;DHT22;3211;53.452;-2.264;2023-06-24T11:36:11;24.80;1.00
6357;DHT22;3211;53.452;-2.264;2023-06-24T11:38:52;25.00;1.00
6357;DHT22;3211;53.452;-2.264;2023-06-24T11:41:36;24.70;1.00
6357;DHT22;3211;53.452;-2.264;2023-06-24T11:44:20;24.50;1.00
6357;DHT22;3211;53.452;-2.264;2023-06-24T11:47:06;24.70;1.00
6357;DHT22;3211;53.452;-2.264;2023-06-24T11:49:49;24.90;99.90
6357;DHT22;3211;53.452;-2.264;2023-06-24T11:52:41;25.10;99.90
6357;DHT22;3211;53.452;-2.264;2023-06-24T11:55:25;25.00;99.90
6357;DHT22;3211;53.452;-2.264;2023-06-24T11:58:07;24.80;99.90
6357;DHT22;3211;53.452;-2.264;2023-06-24T12:00:49;24.70;99.90
6357;DHT22;3211;53.452;-2.264;2023-06-24T12:03:32;24.60;99.90
6357;DHT22;3211;53.452;-2.264;2023-06-24T12:06:15;24.60;99.90
6357;DHT22;3211;53.452;-2.264;2023-06-24T12:08:58;24.70;99.90
6357;DHT22;3211;53.452;-2.264;2023-06-24T12:11:41;25.30;99.90
6357;DHT22;3211;53.452;-2.264;2023-06-24T12:14:23;25.70;33.40
6357;DHT22;3211;53.452;-2.264;2023-06-24T12:17:05;25.10;99.90
6357;DHT22;3211;53.452;-2.264;2023-06-24T12:19:47;25.10;99.90
6357;DHT22;3211;53.452;-2.264;2023-06-24T12:22:28;25.00;99.90
6357;DHT22;3211;53.452;-2.264;2023-06-24T12:25:12;24.80;99.90
6357;DHT22;3211;53.452;-2.264;2023-06-24T12:27:54;24.90;99.90
6357;DHT22;3211;53.452;-2.264;2023-06-24T12:30:36;25.20;1.00
6357;DHT22;3211;53.452;-2.264;2023-06-24T12:33:18;25.70;99.90
6357;DHT22;3211;53.452;-2.264;2023-06-24T12:36:01;25.80;99.90
6357;DHT22;3211;53.452;-2.264;2023-06-24T12:38:43;26.00;99.90
6357;DHT22;3211;53.452;-2.264;2023-06-24T12:41:26;25.80;99.90
6357;DHT22;3211;53.452;-2.264;2023-06-24T12:44:08;25.70;1.00
6357;DHT22;3211;53.452;-2.264;2023-06-24T12:46:50;25.70;99.90
6357;DHT22;3211;53.452;-2.264;2023-06-24T12:49:32;26.30;99.90
6357;DHT22;3211;53.452;-2.264;2023-06-24T12:52:15;26.70;99.90
6357;DHT22;3211;53.452;-2.264;2023-06-24T12:54:57;27.00;8.50
6357;DHT22;3211;53.452;-2.264;2023-06-24T12:57:40;27.10;1.00
6357;DHT22;3211;53.452;-2.264;2023-06-24T13:00:23;27.10;30.00
6357;DHT22;3211;53.452;-2.264;2023-06-24T13:03:05;26.60;1.00
6357;DHT22;3211;53.452;-2.264;2023-06-24T13:05:47;26.10;58.50
6357;DHT22;3211;53.452;-2.264;2023-06-24T13:08:29;26.30;9.50
6357;DHT22;3211;53.452;-2.264;2023-06-24T13:11:11;27.00;1.00
6357;DHT22;3211;53.452;-2.264;2023-06-24T13:13:55;26.70;1.00
6357;DHT22;3211;53.452;-2.264;2023-06-24T13:16:37;26.30;1.00
6357;DHT22;3211;53.452;-2.264;2023-06-24T13:19:19;26.60;1.00
6357;DHT22;3211;53.452;-2.264;2023-06-24T13:22:01;26.60;1.00
6357;DHT22;3211;53.452;-2.264;2023-06-24T13:24:43;27.30;1.00
6357;DHT22;3211;53.452;-2.264;2023-06-24T13:27:26;27.20;1.00
6357;DHT22;3211;53.452;-2.264;2023-06-24T13:30:10;27.50;1.00
6357;DHT22;3211;53.452;-2.264;2023-06-24T13:32:52;27.40;1.00
6357;DHT22;3211;53.452;-2.264;2023-06-24T13:35:34;27.30;1.00
6357;DHT22;3211;53.452;-2.264;2023-06-24T13:38:16;26.70;1.00
6357;DHT22;3211;53.452;-2.264;2023-06-24T13:40:58;26.60;1.00
6357;DHT22;3211;53.452;-2.264;2023-06-24T13:43:40;27.50;1.00
6357;DHT22;3211;53.452;-2.264;2023-06-24T13:46:24;27.20;1.00
6357;DHT22;3211;53.452;-2.264;2023-06-24T13:49:05;26.50;1.00
6357;DHT22;3211;53.452;-2.264;2023-06-24T13:51:47;26.60;1.00
6357;DHT22;3211;53.452;-2.264;2023-06-24T13:54:29;27.60;1.00
6357;DHT22;3211;53.452;-2.264;2023-06-24T13:57:13;27.00;1.00
6357;DHT22;3211;53.452;-2.264;2023-06-24T13:59:56;26.90;1.00
6357;DHT22;3211;53.452;-2.264;2023-06-24T14:02:40;26.70;1.00
6357;DHT22;3211;53.452;-2.264;2023-06-24T14:05:22;26.30;1.00
6357;DHT22;3211;53.452;-2.264;2023-06-24T14:08:04;26.40;14.30
6357;DHT22;3211;53.452;-2.264;2023-06-24T14:10:46;26.70;1.00
6357;DHT22;3211;53.452;-2.264;2023-06-24T14:13:28;26.50;22.30
6357;DHT22;3211;53.452;-2.264;2023-06-24T14:16:11;26.30;71.70
6357;DHT22;3211;53.452;-2.264;2023-06-24T14:18:54;26.20;93.40
6357;DHT22;3211;53.452;-2.264;2023-06-24T14:21:36;26.30;99.90
6357;DHT22;3211;53.452;-2.264;2023-06-24T14:24:18;27.10;1.00
6357;DHT22;3211;53.452;-2.264;2023-06-24T14:27:00;27.00;1.00
6357;DHT22;3211;53.452;-2.264;2023-06-24T14:29:42;26.70;58.00
6357;DHT22;3211;53.452;-2.264;2023-06-24T14:32:24;26.60;94.40
6357;DHT22;3211;53.452;-2.264;2023-06-24T14:35:08;26.60;91.00
6357;DHT22;3211;53.452;-2.264;2023-06-24T14:37:50;27.30;25.80
6357;DHT22;3211;53.452;-2.264;2023-06-24T14:40:32;29.20;99.90
6357;DHT22;3211;53.452;-2.264;2023-06-24T14:43:14;31.30;99.90
6357;DHT22;3211;53.452;-2.264;2023-06-24T14:45:56;29.50;99.90
6357;DHT22;3211;53.452;-2.264;2023-06-24T14:48:39;30.80;99.90
6357;DHT22;3211;53.452;-2.264;2023-06-24T14:51:24;30.70;99.90
6357;DHT22;3211;53.452;-2.264;2023-06-24T14:54:06;31.70;99.90
6357;DHT22;3211;53.452;-2.264;2023-06-24T14:56:48;30.90;99.90
6357;DHT22;3211;53.452;-2.264;2023-06-24T14:59:30;31.90;99.90
6357;DHT22;3211;53.452;-2.264;2023-06-24T15:02:12;29.10;99.90
6357;DHT22;3211;53.452;-2.264;2023-06-24T15:04:54;28.90;99.90
6357;DHT22;3211;53.452;-2.264;2023-06-24T15:07:37;29.00;99.90
6357;DHT22;3211;53.452;-2.264;2023-06-24T15:10:19;31.40;99.90
6357;DHT22;3211;53.452;-2.264;2023-06-24T15:13:01;30.10;99.90
6357;DHT22;3211;53.452;-2.264;2023-06-24T15:15:43;30.50;99.90
6357;DHT22;3211;53.452;-2.264;2023-06-24T15:18:25;30.90;99.90
6357;DHT22;3211;53.452;-2.264;2023-06-24T15:21:07;31.20;99.90
6357;DHT22;3211;53.452;-2.264;2023-06-24T15:23:50;32.20;99.90
6357;DHT22;3211;53.452;-2.264;2023-06-24T15:26:32;32.80;99.90
6357;DHT22;3211;53.452;-2.264;2023-06-24T15:29:14;31.10;99.90
6357;DHT22;3211;53.452;-2.264;2023-06-24T15:31:56;32.30;99.90
6357;DHT22;3211;53.452;-2.264;2023-06-24T15:34:38;32.50;99.90
6357;DHT22;3211;53.452;-2.264;2023-06-24T15:37:20;34.60;99.90
6357;DHT22;3211;53.452;-2.264;2023-06-24T15:40:04;35.50;99.90
6357;DHT22;3211;53.452;-2.264;2023-06-24T15:42:47;35.00;99.90
6357;DHT22;3211;53.452;-2.264;2023-06-24T15:45:28;34.50;99.90
6357;DHT22;3211;53.452;-2.264;2023-06-24T15:48:10;35.80;99.90
6357;DHT22;3211;53.452;-2.264;2023-06-24T15:50:52;34.70;99.90
6357;DHT22;3211;53.452;-2.264;2023-06-24T15:53:34;33.60;99.90
6357;DHT22;3211;53.452;-2.264;2023-06-24T15:56:18;33.70;99.90
6357;DHT22;3211;53.452;-2.264;2023-06-24T15:58:59;34.70;99.90
6357;DHT22;3211;53.452;-2.264;2023-06-24T16:01:41;35.20;99.90
6357;DHT22;3211;53.452;-2.264;2023-06-24T16:04:23;35.20;99.90
6357;DHT22;3211;53.452;-2.264;2023-06-24T16:07:06;37.30;99.90
6357;DHT22;3211;53.452;-2.264;2023-06-24T16:09:48;36.80;99.90
6357;DHT22;3211;53.452;-2.264;2023-06-24T16:12:31;37.50;99.90
6357;DHT22;3211;53.452;-2.264;2023-06-24T16:15:13;35.90;99.90
6357;DHT22;3211;53.452;-2.264;2023-06-24T16:17:55;37.10;99.90
6357;DHT22;3211;53.452;-2.264;2023-06-24T16:20:37;38.50;99.90
6357;DHT22;3211;53.452;-2.264;2023-06-24T16:23:19;39.10;99.90
6357;DHT22;3211;53.452;-2.264;2023-06-24T16:26:01;36.90;99.90
6357;DHT22;3211;53.452;-2.264;2023-06-24T16:28:44;37.00;99.90
6357;DHT22;3211;53.452;-2.264;2023-06-24T16:31:27;36.50;99.90
6357;DHT22;3211;53.452;-2.264;2023-06-24T16:34:09;33.70;99.90
6357;DHT22;3211;53.452;-2.264;2023-06-24T16:36:51;32.60;99.90
6357;DHT22;3211;53.452;-2.264;2023-06-24T16:39:33;32.60;99.90
6357;DHT22;3211;53.452;-2.264;2023-06-24T16:42:15;32.20;99.90
6357;DHT22;3211;53.452;-2.264;2023-06-24T16:44:59;32.20;99.90
6357;DHT22;3211;53.452;-2.264;2023-06-24T16:47:40;31.70;99.90
6357;DHT22;3211;53.452;-2.264;2023-06-24T16:50:22;31.80;99.90
6357;DHT22;3211;53.452;-2.264;2023-06-24T16:53:04;31.70;99.90
6357;DHT22;3211;53.452;-2.264;2023-06-24T16:55:46;31.00;99.90
6357;DHT22;3211;53.452;-2.264;2023-06-24T16:58:28;31.20;99.90
6357;DHT22;3211;53.452;-2.264;2023-06-24T17:01:12;31.10;99.90
6357;DHT22;3211;53.452;-2.264;2023-06-24T17:03:54;31.40;99.90
6357;DHT22;3211;53.452;-2.264;2023-06-24T17:06:36;31.40;99.90
6357;DHT22;3211;53.452;-2.264;2023-06-24T17:09:18;30.50;99.90
6357;DHT22;3211;53.452;-2.264;2023-06-24T17:12:00;30.60;99.90
6357;DHT22;3211;53.452;-2.264;2023-06-24T17:14:42;30.40;99.90
6357;DHT22;3211;53.452;-2.264;2023-06-24T17:17:25;30.10;99.90
6357;DHT22;3211;53.452;-2.264;2023-06-24T17:20:08;29.50;99.90
6357;DHT22;3211;53.452;-2.264;2023-06-24T17:22:50;29.30;99.90
6357;DHT22;3211;53.452;-2.264;2023-06-24T17:25:32;29.00;99.90
6357;DHT22;3211;53.452;-2.264;2023-06-24T17:28:14;28.70;99.90
6357;DHT22;3211;53.452;-2.264;2023-06-24T17:30:56;28.40;99.90